Time;durP1;ratioP1;P1;durP2;ratioP2;P2;SDS_P1;SDS_P2;PMS_P1;PMS_P2;Temp;Humidity;BMP_temperature;BMP_pressure;BME280_temperature;BME280_humidity;BME280_pressure;Samples;Min_cycle;Max_cycle;Signal;HPM_P1;HPM_P2
2023/07/03 00:00:17;;;;;;;22.27;15.57;;;14.30;99.90;;;15.16;80.56;97675.94;10393053;28;20257;-64
2023/07/03 00:05:23;;;;;;;24.27;16.25;;;14.20;99.90;;;14.97;82.03;97670.97;10397160;28;20685;-64
2023/07/03 00:10:29;;;;;;;23.92;16.63;;;14.00;99.90;;;14.84;82.76;97667.94;10391953;28;21157;-64
2023/07/03 00:15:32;;;;;;;25.02;16.65;;;13.90;99.90;;;14.76;81.67;97671.03;10397573;28;20268;-64
2023/07/03 00:20:35;;;;;;;23.83;16.30;;;13.80;99.90;;;14.76;83.84;97671.03;10393184;28;20854;-64
2023/07/03 00:25:40;;;;;;;24.27;16.13;;;13.90;99.90;;;14.70;83.18;97663.97;10398792;28;20257;-64
2023/07/03 00:30:44;;;;;;;21.55;15.55;;;13.80;99.90;;;14.70;83.74;97671.69;10393637;28;20225;-64
2023/07/03 00:35:47;;;;;;;21.00;15.82;;;13.80;99.90;;;14.67;83.59;97679.28;10397406;28;20240;-63
2023/07/03 00:40:52;;;;;;;20.80;15.48;;;13.70;99.90;;;14.55;84.69;97676.25;10391970;28;20222;-63
2023/07/03 00:45:55;;;;;;;21.42;16.45;;;13.60;99.90;;;14.48;84.32;97684.50;10399247;28;20324;-64
2023/07/03 00:50:59;;;;;;;26.58;16.40;;;13.50;99.90;;;14.31;84.60;97679.59;10389572;28;20249;-64
2023/07/03 00:56:04;;;;;;;24.00;16.65;;;13.40;99.90;;;14.25;85.47;97679.34;10390017;28;20221;-64
2023/07/03 01:01:17;;;;;;;22.60;16.45;;;13.30;99.90;;;14.22;86.28;97673.19;10395819;28;20227;-64
2023/07/03 01:06:28;;;;;;;21.92;16.17;;;13.40;99.90;;;14.18;85.19;97677.34;10397990;28;20252;-64
2023/07/03 01:11:32;;;;;;;23.10;16.00;;;13.30;99.90;;;14.13;85.37;97673.72;10392399;28;20299;-63
2023/07/03 01:16:36;;;;;;;22.58;15.38;;;13.20;99.90;;;14.15;87.10;97666.94;10391707;28;20234;-63
2023/07/03 01:21:45;;;;;;;20.92;16.13;;;13.30;99.90;;;14.25;87.09;97674.22;10399405;28;20234;-63
2023/07/03 01:26:50;;;;;;;20.80;16.63;;;13.40;99.90;;;14.43;86.56;97663.75;10393297;28;20230;-63
2023/07/03 01:31:56;;;;;;;20.77;16.00;;;13.50;99.90;;;14.32;85.79;97671.06;10395180;28;20241;-63
2023/07/03 01:37:02;;;;;;;20.00;16.08;;;13.40;99.90;;;14.28;86.01;97669.19;10395052;28;20360;-63
2023/07/03 01:42:10;;;;;;;21.77;16.48;;;13.40;99.90;;;14.23;86.60;97657.84;10391311;28;20233;-63
2023/07/03 01:47:15;;;;;;;20.10;15.85;;;13.40;99.90;;;14.16;86.71;97653.25;10392196;28;20226;-63
2023/07/03 01:52:21;;;;;;;23.73;15.98;;;13.30;99.90;;;14.35;85.52;97645.47;10387364;28;20317;-64
2023/07/03 01:57:39;;;;;;;22.27;15.45;;;13.50;99.90;;;14.39;86.85;97647.34;10390120;28;20222;-63
2023/07/03 02:02:47;;;;;;;23.00;16.20;;;13.60;99.90;;;14.53;87.04;97644.44;10392479;28;20236;-64
2023/07/03 02:07:54;;;;;;;20.88;16.38;;;13.70;99.90;;;14.66;87.33;97641.53;10396485;28;20257;-64
2023/07/03 02:12:59;;;;;;;19.23;14.73;;;13.80;99.90;;;14.73;87.77;97648.63;10411253;22;20317;-65
2023/07/03 02:18:02;;;;;;;23.30;16.63;;;13.90;99.90;;;14.87;87.57;97646.56;10390463;28;20229;-67
2023/07/03 02:23:05;;;;;;;22.10;15.25;;;13.90;99.90;;;14.81;87.91;97638.63;10402640;28;20234;-66
2023/07/03 02:28:10;;;;;;;20.55;15.07;;;13.90;99.90;;;14.82;88.67;97637.81;10394516;28;20230;-66
2023/07/03 02:33:13;;;;;;;18.70;15.32;;;13.90;99.90;;;14.95;88.27;97634.88;10390749;28;20226;-67
2023/07/03 02:38:16;;;;;;;20.27;16.35;;;14.00;99.90;;;14.92;89.10;97642.47;10396861;28;20588;-66
2023/07/03 02:43:20;;;;;;;19.85;14.68;;;14.10;99.90;;;14.96;89.14;97641.75;10393034;28;20259;-69
2023/07/03 02:48:24;;;;;;;21.98;15.38;;;14.10;99.90;;;14.93;87.61;97640.78;10389229;28;20237;-69
2023/07/03 02:53:27;;;;;;;21.70;15.63;;;14.00;99.90;;;14.74;88.58;97639.25;10391421;28;20234;-67
2023/07/03 02:58:33;;;;;;;20.50;14.57;;;13.90;99.90;;;14.74;88.56;97629.81;10391771;28;20725;-66
2023/07/03 03:03:36;;;;;;;19.95;15.68;;;14.00;99.90;;;14.86;88.28;97632.84;10394009;28;20229;-67
2023/07/03 03:08:39;;;;;;;18.85;15.15;;;14.00;99.90;;;15.00;88.35;97629.91;10397446;28;20322;-67
2023/07/03 03:13:44;;;;;;;21.48;15.68;;;14.20;99.90;;;15.08;88.38;97638.78;10399507;28;20726;-67
2023/07/03 03:18:47;;;;;;;19.15;14.48;;;14.30;99.90;;;15.23;88.02;97636.75;10405779;28;20228;-66
2023/07/03 03:23:51;;;;;;;19.67;14.15;;;14.40;99.90;;;15.25;88.92;97639.34;10400724;28;20623;-66
2023/07/03 03:28:57;;;;;;;20.02;15.27;;;14.40;99.90;;;15.31;90.02;97640.47;10395348;28;20615;-67
2023/07/03 03:34:00;;;;;;;18.92;15.55;;;14.50;99.90;;;15.41;89.16;97633.91;10401436;28;20234;-67
2023/07/03 03:39:04;;;;;;;19.75;14.93;;;14.60;99.90;;;15.53;87.21;97633.44;10396676;28;20238;-67
2023/07/03 03:44:08;;;;;;;22.40;15.88;;;14.80;99.90;;;15.62;84.65;97640.63;10402760;28;20222;-67
2023/07/03 03:49:11;;;;;;;19.50;15.52;;;14.90;99.90;;;15.74;85.12;97636.78;10406173;28;20723;-67
2023/07/03 03:54:14;;;;;;;18.80;15.27;;;15.00;99.90;;;15.81;83.51;97637.88;10404958;28;20229;-67
2023/07/03 03:59:20;;;;;;;18.88;14.80;;;15.10;99.90;;;15.94;82.98;97644.31;10399637;28;20240;-67
2023/07/03 04:04:23;;;;;;;19.20;14.80;;;15.20;99.90;;;16.02;81.67;97647.13;10398393;28;20225;-67
2023/07/03 04:09:27;;;;;;;18.85;14.75;;;15.20;99.90;;;16.15;83.42;97649.28;10399938;28;20237;-66
2023/07/03 04:14:31;;;;;;;19.60;14.95;;;15.30;99.90;;;16.04;82.80;97646.34;10398071;28;20603;-68
2023/07/03 04:19:35;;;;;;;18.63;15.07;;;15.20;99.90;;;16.02;84.08;97644.53;10396342;28;20592;-67
2023/07/03 04:24:38;;;;;;;20.25;15.70;;;15.10;99.90;;;16.10;82.57;97648.25;10399290;28;20225;-67
2023/07/03 04:29:42;;;;;;;20.70;15.57;;;15.10;99.90;;;16.06;82.60;97649.84;10399818;28;20329;-66
2023/07/03 04:34:45;;;;;;;20.60;15.02;;;15.10;99.90;;;16.07;82.86;97649.03;10397215;28;20228;-67
2023/07/03 04:39:49;;;;;;;18.33;14.48;;;15.20;99.90;;;16.07;82.23;97651.59;10400689;28;20276;-67
2023/07/03 04:44:53;;;;;;;20.05;14.73;;;15.30;99.90;;;16.27;79.95;97659.09;10401938;28;20237;-67
2023/07/03 04:49:58;;;;;;;19.10;14.38;;;15.50;99.90;;;16.60;76.95;97656.69;10389773;28;20291;-67
2023/07/03 04:55:01;;;;;;;19.05;14.02;;;15.90;99.90;;;17.03;73.53;97656.25;10398530;28;20238;-67
2023/07/03 05:00:14;;;;;;;17.90;12.77;;;16.20;99.90;;;17.37;69.62;97653.72;10401228;28;20233;-67
2023/07/03 05:05:20;;;;;;;17.80;12.52;;;16.60;99.90;;;17.54;68.90;97658.53;10402061;28;20241;-66
2023/07/03 05:10:24;;;;;;;18.73;13.25;;;16.90;99.90;;;17.75;69.93;97641.81;10401503;28;20225;-67
2023/07/03 05:15:30;;;;;;;14.60;12.55;;;17.00;99.90;;;17.80;70.08;97650.59;10392165;28;20241;-67
2023/07/03 05:20:34;;;;;;;15.88;13.07;;;17.10;99.90;;;17.91;69.99;97662.09;10396402;28;20313;-67
2023/07/03 05:25:37;;;;;;;16.65;13.02;;;17.10;99.90;;;18.01;70.06;97656.28;10393875;28;20321;-67
2023/07/03 05:30:42;;;;;;;16.02;12.65;;;17.20;99.90;;;18.24;67.38;97656.84;10386984;28;20237;-67
2023/07/03 05:35:45;;;;;;;17.02;12.65;;;17.30;99.90;;;18.36;65.42;97664.00;10399027;28;20729;-67
2023/07/03 05:40:55;;;;;;;17.25;12.13;;;17.50;99.90;;;18.58;63.14;97667.09;10387454;28;20233;-67
2023/07/03 05:46:00;;;;;;;18.45;11.95;;;17.70;99.90;;;18.87;61.66;97665.16;10394648;28;20234;-67
2023/07/03 05:51:03;;;;;;;14.13;11.32;;;17.90;99.90;;;18.91;61.32;97674.75;10388763;28;20233;-67
2023/07/03 05:56:06;;;;;;;16.90;11.70;;;18.10;99.90;;;19.11;60.68;97675.16;10393324;28;20708;-67
2023/07/03 06:01:10;;;;;;;18.45;12.30;;;18.30;99.90;;;19.34;60.54;97684.28;10390224;28;20221;-67
2023/07/03 06:06:13;;;;;;;17.27;12.05;;;18.50;99.90;;;19.59;58.88;97684.75;10396820;28;20241;-67
2023/07/03 06:11:17;;;;;;;17.08;11.85;;;18.70;99.90;;;20.10;56.95;97686.53;10384944;28;20477;-67
2023/07/03 06:16:21;;;;;;;15.48;11.60;;;19.20;99.90;;;20.33;55.91;97686.91;10386542;28;20230;-67
2023/07/03 06:21:24;;;;;;;14.95;11.07;;;19.50;99.90;;;20.55;54.99;97702.88;10390959;28;20576;-67
2023/07/03 06:26:30;;;;;;;16.17;10.82;;;19.80;99.50;;;20.43;55.05;97690.50;10389279;28;20236;-67
2023/07/03 06:31:35;;;;;;;16.13;10.40;;;19.80;98.70;;;20.62;54.60;97683.91;10383871;28;20761;-67
2023/07/03 06:36:38;;;;;;;14.05;10.13;;;19.70;99.00;;;20.63;54.39;97685.66;10395123;28;20240;-67
2023/07/03 06:41:42;;;;;;;15.18;11.00;;;19.70;98.80;;;20.65;53.93;97703.00;10389165;28;20233;-66
2023/07/03 06:46:46;;;;;;;14.18;10.88;;;19.80;98.20;;;20.77;53.97;97701.44;10385597;28;20228;-67
2023/07/03 06:51:50;;;;;;;12.27;10.07;;;19.80;98.10;;;21.04;53.44;97699.22;10387674;28;20354;-67
2023/07/03 06:56:53;;;;;;;15.27;9.45;;;20.20;97.80;;;21.39;52.02;97706.63;10391495;28;20612;-67
2023/07/03 07:01:57;;;;;;;12.40;10.30;;;20.50;96.80;;;21.59;51.92;97699.91;10389788;28;20237;-67
2023/07/03 07:07:00;;;;;;;11.90;10.32;;;20.50;96.80;;;21.65;51.29;97700.84;10394480;28;20287;-67
2023/07/03 07:12:04;;;;;;;11.93;9.52;;;20.60;96.50;;;21.70;51.20;97701.78;10389039;28;20237;-67
2023/07/03 07:17:09;;;;;;;15.50;10.43;;;20.60;96.10;;;21.88;50.68;97688.06;10390005;28;20238;-68
2023/07/03 07:22:12;;;;;;;13.65;10.27;;;20.90;95.70;;;21.92;50.36;97687.22;10397446;28;20519;-67
2023/07/03 07:27:15;;;;;;;14.13;9.23;;;21.00;95.60;;;21.81;50.96;97695.81;10394301;28;20229;-67
2023/07/03 07:32:21;;;;;;;12.40;9.77;;;21.00;95.60;;;21.96;51.04;97692.47;10380804;28;20590;-66
2023/07/03 07:37:24;;;;;;;14.27;10.27;;;21.10;95.60;;;22.27;50.42;97700.59;10387707;28;20221;-67
2023/07/03 07:42:31;;;;;;;15.07;10.88;;;21.40;95.00;;;22.29;49.57;97703.19;10392355;28;20239;-67
2023/07/03 07:47:35;;;;;;;14.13;9.90;;;21.50;94.50;;;22.47;49.84;97699.03;10389630;28;20221;-67
2023/07/03 07:52:39;;;;;;;13.75;8.88;;;21.80;94.30;;;22.45;49.66;97700.72;10396106;28;20602;-67
2023/07/03 07:57:42;;;;;;;14.57;9.75;;;21.70;94.40;;;22.69;49.19;97694.84;10393811;28;20313;-67
2023/07/03 08:02:47;;;;;;;14.50;10.32;;;21.80;94.20;;;22.94;47.90;97694.97;10407627;28;20233;-68
2023/07/03 08:07:50;;;;;;;13.13;9.32;;;22.10;93.00;;;22.73;48.41;97693.13;10397448;28;20217;-67
2023/07/03 08:12:53;;;;;;;12.13;9.73;;;21.90;93.20;;;22.86;49.35;97689.72;10399170;28;20618;-68
2023/07/03 08:17:58;;;;;;;13.63;9.30;;;21.90;94.00;;;22.96;48.73;97687.19;10400661;28;20236;-67
2023/07/03 08:23:01;;;;;;;11.77;8.85;;;21.90;93.80;;;23.61;46.12;97690.06;10393198;28;20296;-68
2023/07/03 08:28:05;;;;;;;13.10;9.75;;;22.50;92.20;;;23.41;46.30;97693.47;10401328;28;20229;-68
2023/07/03 08:33:09;;;;;;;14.32;9.75;;;22.20;92.30;;;22.93;47.68;97699.31;10397896;28;20240;-68
2023/07/03 08:38:13;;;;;;;11.77;9.10;;;21.80;92.70;;;22.28;49.20;97707.53;10400650;28;20222;-68
2023/07/03 08:43:20;;;;;;;14.02;9.32;;;21.10;94.00;;;21.91;49.87;97712.38;10399712;28;20589;-67
2023/07/03 08:48:28;;;;;;;15.70;9.75;;;20.70;94.60;;;21.54;51.54;97725.00;10386445;28;20230;-68
2023/07/03 08:53:37;;;;;;;15.05;10.88;;;20.50;95.40;;;21.37;52.35;97729.13;10398209;28;20225;-67
2023/07/03 08:58:40;;;;;;;16.38;10.38;;;20.30;96.10;;;21.42;52.81;97722.25;10398153;28;20218;-68
2023/07/03 09:04:00;;;;;;;15.48;10.20;;;20.40;96.30;;;21.62;53.14;97719.03;10400703;28;20229;-68
2023/07/03 09:09:11;;;;;;;14.73;10.57;;;20.70;96.50;;;22.21;52.41;97716.19;10376517;28;20233;-68
2023/07/03 09:14:22;;;;;;;15.98;10.27;;;21.10;96.20;;;22.59;50.58;97724.28;10388655;28;20252;-68
2023/07/03 09:19:29;;;;;;;18.77;10.93;;;21.50;95.00;;;22.51;50.93;97725.09;10398395;28;20225;-67
2023/07/03 09:24:37;;;;;;;14.15;10.45;;;21.50;95.30;;;22.88;50.45;97736.63;10402497;28;20232;-68
2023/07/03 09:29:43;;;;;;;16.60;11.30;;;21.70;95.40;;;23.54;50.38;97730.03;10401719;28;20324;-68
2023/07/03 09:35:06;;;;;;;15.32;10.73;;;22.60;94.80;;;24.40;46.55;97735.44;10391313;28;20726;-67
2023/07/03 09:40:18;;;;;;;15.48;10.63;;;23.70;92.10;;;24.56;46.40;97728.53;10391364;28;20217;-67
2023/07/03 09:45:23;;;;;;;15.07;10.30;;;23.80;92.00;;;24.75;46.36;97731.09;10397468;28;20225;-66
2023/07/03 09:50:32;;;;;;;13.38;9.98;;;23.90;91.60;;;23.91;46.15;97734.53;10399204;28;20622;-67
2023/07/03 09:55:36;;;;;;;15.52;10.20;;;22.80;91.80;;;23.54;48.33;97734.38;10402023;28;20234;-67
2023/07/03 10:00:46;;;;;;;16.20;10.50;;;22.40;93.10;;;23.70;47.07;97740.56;10397240;28;20522;-67
2023/07/03 10:05:53;;;;;;;17.05;9.75;;;22.50;92.60;;;24.14;46.92;97743.28;10396848;28;20332;-67
2023/07/03 10:11:00;;;;;;;16.05;10.68;;;23.10;92.20;;;24.87;45.13;97741.56;10390031;28;20244;-67
2023/07/03 10:16:07;;;;;;;13.35;9.45;;;24.20;90.80;;;25.25;43.61;97727.56;10388889;28;20229;-66
2023/07/03 10:21:17;;;;;;;15.00;10.18;;;24.60;88.60;;;25.26;43.78;97724.91;10396417;28;20221;-66
2023/07/03 10:26:24;;;;;;;14.05;9.32;;;24.70;88.20;;;25.56;42.18;97744.00;10397166;28;20240;-66
2023/07/03 10:31:37;;;;;;;13.27;9.27;;;24.90;85.80;;;25.67;39.75;97721.25;10397746;28;20225;-66
2023/07/03 10:36:44;;;;;;;15.15;9.23;;;25.10;81.00;;;25.75;39.91;97729.06;10399906;28;20228;-66
2023/07/03 10:41:50;;;;;;;12.23;8.07;;;25.10;81.50;;;25.73;39.21;97736.94;10397338;28;20225;-66
2023/07/03 10:47:00;;;;;;;12.82;8.70;;;25.00;80.30;;;25.92;39.15;97732.47;10395143;28;20598;-66
2023/07/03 10:52:18;;;;;;;12.27;8.27;;;25.10;80.30;;;25.75;39.23;97729.06;10399579;28;20720;-68
2023/07/03 10:57:36;;;;;;;12.73;8.30;;;24.90;80.50;;;26.37;37.63;97732.19;10388645;28;20287;-66
2023/07/03 11:02:47;;;;;;;10.60;7.80;;;25.60;78.10;;;26.52;37.14;97730.31;10392946;28;20271;-66
2023/07/03 11:08:02;;;;;;;13.60;8.60;;;25.90;76.20;;;26.45;36.88;97712.88;10388664;28;20220;-66
2023/07/03 11:13:13;;;;;;;11.57;8.25;;;26.00;75.80;;;25.98;38.10;97703.66;10390703;28;20339;-66
2023/07/03 11:18:32;;;;;;;12.52;7.78;;;25.10;77.80;;;26.04;37.37;97711.47;10388781;28;20709;-67
2023/07/03 11:23:50;;;;;;;10.10;7.95;;;24.90;77.10;;;25.97;37.44;97694.03;10396834;28;20232;-66
2023/07/03 11:28:55;;;;;;;10.65;7.72;;;25.10;76.00;;;26.06;37.62;97693.97;10399470;28;20233;-66
2023/07/03 11:33:59;;;;;;;10.90;8.00;;;25.30;76.80;;;26.27;36.72;97698.19;10398513;28;20312;-66
2023/07/03 11:39:24;;;;;;;9.32;6.85;;;25.70;74.70;;;26.31;35.64;97693.78;10403484;28;20221;-66
2023/07/03 11:44:32;;;;;;;9.10;6.25;;;25.70;72.80;;;26.30;36.72;97699.91;10398313;28;20226;-66
2023/07/03 11:49:42;;;;;;;10.05;6.55;;;25.60;74.00;;;26.37;35.41;97698.97;10395580;28;20608;-66
2023/07/03 11:54:59;;;;;;;9.18;6.05;;;25.60;72.60;;;26.10;35.44;97707.94;10400506;28;20237;-66
2023/07/03 12:00:18;;;;;;;8.70;5.30;;;25.20;72.40;;;25.66;36.61;97713.41;10399484;28;20229;-68
2023/07/03 12:05:54;;;;;;;8.93;5.28;;;24.70;74.70;;;25.01;38.10;97711.03;10396904;28;20308;-66
2023/07/03 12:11:03;;;;;;;7.13;4.97;;;24.00;77.20;;;25.18;38.52;97710.97;10403031;28;20240;-66
2023/07/03 12:16:13;;;;;;;6.85;4.75;;;24.20;77.60;;;25.51;38.47;97715.22;10400299;28;20239;-66
2023/07/03 12:21:16;;;;;;;8.15;4.68;;;24.70;76.80;;;25.92;36.99;97714.16;10393146;28;20222;-66
2023/07/03 12:26:23;;;;;;;8.05;4.70;;;25.10;74.40;;;25.78;37.28;97702.84;10398357;28;20648;-66
2023/07/03 12:31:26;;;;;;;7.15;4.63;;;24.80;76.20;;;25.67;39.38;97716.03;10391739;28;20240;-67
2023/07/03 12:36:33;;;;;;;6.63;4.60;;;25.00;78.20;;;25.71;38.66;97722.09;10404331;28;20236;-67
2023/07/03 12:41:40;;;;;;;9.07;4.90;;;24.80;76.80;;;25.71;39.50;97722.09;10400511;28;20268;-66
2023/07/03 12:46:45;;;;;;;8.45;4.88;;;24.70;78.40;;;25.90;39.52;97718.53;10394807;28;20299;-66
2023/07/03 12:51:53;;;;;;;7.68;4.32;;;24.90;78.70;;;25.65;39.68;97745.72;10397002;28;20259;-66
2023/07/03 12:57:00;;;;;;;8.30;4.43;;;24.70;79.60;;;25.66;40.10;97729.13;10401901;28;20231;-67
2023/07/03 13:02:04;;;;;;;6.97;4.82;;;24.80;80.10;;;25.57;40.07;97735.25;10396213;28;20233;-67
2023/07/03 13:07:07;;;;;;;7.68;5.32;;;24.70;79.60;;;25.45;40.91;97730.09;10404451;28;20240;-66
2023/07/03 13:12:20;;;;;;;7.35;4.97;;;24.70;80.10;;;25.32;41.16;97718.78;10389321;28;20237;-66
2023/07/03 13:17:28;;;;;;;8.10;5.30;;;24.60;80.60;;;25.63;39.79;97724.75;10397140;28;20232;-66
2023/07/03 13:22:32;;;;;;;10.75;5.60;;;24.90;79.40;;;25.29;40.73;97724.91;10392415;28;20238;-66
2023/07/03 13:27:37;;;;;;;9.73;5.28;;;24.50;80.30;;;25.52;39.97;97716.94;10398288;28;20236;-66
2023/07/03 13:32:54;;;;;;;7.60;4.75;;;24.70;79.20;;;25.13;40.18;97708.38;10397491;28;20233;-67
2023/07/03 13:38:28;;;;;;;8.52;5.10;;;24.40;79.20;;;25.33;40.00;97702.22;10391456;28;20857;-66
2023/07/03 13:43:33;;;;;;;7.32;4.70;;;24.60;78.70;;;25.87;38.46;97710.72;10391611;28;20224;-66
2023/07/03 13:48:36;;;;;;;7.93;5.00;;;25.10;76.90;;;25.81;38.62;97703.72;10387230;28;20252;-66
2023/07/03 13:53:39;;;;;;;6.30;4.50;;;25.00;76.90;;;25.78;37.59;97703.75;10394515;28;20705;-67
2023/07/03 13:58:44;;;;;;;6.03;4.43;;;24.90;75.10;;;25.61;37.24;97685.50;10395172;28;20612;-66
2023/07/03 14:03:47;;;;;;;7.63;4.40;;;25.00;74.10;;;25.66;37.80;97681.97;10390261;28;20232;-66
2023/07/03 14:08:51;;;;;;;7.00;4.50;;;25.00;75.40;;;25.72;37.52;97688.03;10393254;28;20225;-66
2023/07/03 14:13:55;;;;;;;6.43;4.20;;;24.90;74.40;;;25.46;38.32;97690.81;10392524;28;20237;-67
2023/07/03 14:19:01;;;;;;;6.10;3.65;;;24.60;76.60;;;25.62;36.95;97682.00;10387477;28;20300;-67
2023/07/03 14:24:09;;;;;;;6.00;3.47;;;24.70;73.80;;;25.60;37.85;97678.50;10392170;28;20233;-68
2023/07/03 14:29:13;;;;;;;6.03;3.42;;;24.80;75.50;;;25.71;37.36;97681.06;10396766;28;20225;-66
2023/07/03 14:34:16;;;;;;;5.00;2.83;;;24.80;74.00;;;25.68;37.64;97685.47;10395033;28;20233;-67
2023/07/03 14:39:19;;;;;;;4.10;3.00;;;24.80;74.40;;;26.02;37.00;97686.16;10394338;28;20637;-67
2023/07/03 14:44:25;;;;;;;3.70;3.03;;;25.10;74.10;;;25.86;37.57;97682.75;10396508;28;20244;-66
2023/07/03 14:49:28;;;;;;;5.22;2.78;;;25.00;74.50;;;25.59;38.13;97683.78;10395322;28;20739;-66
2023/07/03 14:54:32;;;;;;;3.83;2.67;;;24.70;75.10;;;25.58;37.53;97689.88;10392565;28;20229;-67
2023/07/03 14:59:36;;;;;;;3.78;2.60;;;24.70;75.10;;;25.50;38.61;97681.22;10389284;28;20450;-66
2023/07/03 15:04:39;;;;;;;3.47;2.10;;;24.50;76.20;;;25.47;38.72;97674.25;10401751;28;20456;-67
2023/07/03 15:09:43;;;;;;;4.07;2.58;;;24.50;76.10;;;25.33;39.30;97669.06;10396597;28;20731;-66
2023/07/03 15:14:47;;;;;;;2.78;2.55;;;24.40;77.00;;;25.49;39.21;97669.84;10396201;28;20718;-67
2023/07/03 15:19:54;;;;;;;3.42;2.55;;;24.60;77.00;;;25.67;38.70;97657.53;10398516;28;20225;-67
2023/07/03 15:24:57;;;;;;;4.75;2.75;;;24.70;76.70;;;25.78;37.86;97660.94;10406053;28;20233;-66
2023/07/03 15:30:01;;;;;;;4.60;2.90;;;24.80;75.70;;;25.89;37.52;97664.41;10398917;28;20228;-67
2023/07/03 15:35:06;;;;;;;3.47;2.55;;;24.80;75.00;;;25.90;38.38;97665.25;10384785;28;20698;-66
2023/07/03 15:40:10;;;;;;;4.13;2.30;;;24.90;76.50;;;25.82;38.43;97662.69;10371504;28;20228;-67
2023/07/03 15:45:14;;;;;;;3.97;2.70;;;24.90;76.50;;;25.78;38.85;97664.47;10388193;28;20311;-67
2023/07/03 15:50:18;;;;;;;3.90;2.50;;;24.80;76.70;;;25.71;38.35;97664.50;10372435;28;20325;-67
2023/07/03 15:55:21;;;;;;;3.53;2.03;;;24.70;76.80;;;25.72;38.66;97645.28;10380293;28;20229;-67
2023/07/03 16:00:25;;;;;;;2.53;2.17;;;24.60;76.90;;;25.78;37.57;97653.09;10381427;28;20236;-67
2023/07/03 16:05:28;;;;;;;4.40;2.30;;;24.60;75.90;;;25.27;38.27;97647.31;10380205;28;20810;-67
2023/07/03 16:10:32;;;;;;;4.10;2.35;;;24.30;76.20;;;25.23;38.69;97635.97;10385602;28;20232;-67
2023/07/03 16:15:36;;;;;;;5.88;2.20;;;24.30;76.80;;;25.09;39.12;97628.13;10375894;28;20230;-67
2023/07/03 16:20:40;;;;;;;2.78;2.00;;;24.10;77.30;;;25.28;38.95;97628.97;10382299;28;20309;-66
2023/07/03 16:25:50;;;;;;;2.05;1.95;;;24.10;76.70;;;25.21;38.86;97614.19;10400015;28;20230;-66
2023/07/03 16:31:02;;;;;;;2.90;2.00;;;24.20;77.20;;;25.32;39.15;97621.97;10404694;28;20234;-67
2023/07/03 16:36:08;;;;;;;2.55;1.75;;;24.40;77.10;;;25.60;37.42;97610.44;10405489;28;20225;-67
2023/07/03 16:41:12;;;;;;;2.67;1.60;;;24.70;74.20;;;25.43;37.97;97604.44;10400675;28;20739;-66
2023/07/03 16:46:19;;;;;;;2.63;1.80;;;24.50;74.60;;;25.15;38.02;97604.63;10400294;28;20229;-67
2023/07/03 16:51:23;;;;;;;1.58;1.40;;;24.20;75.00;;;24.90;38.25;97601.22;10402247;28;20221;-67
2023/07/03 16:56:28;;;;;;;1.52;1.40;;;24.00;75.60;;;24.93;38.17;97598.59;10402360;28;20701;-67
2023/07/03 17:01:33;;;;;;;1.77;1.40;;;24.00;75.30;;;24.86;39.13;97609.94;10397995;28;20313;-68
2023/07/03 17:06:36;;;;;;;1.73;1.10;;;23.90;76.70;;;24.75;38.67;97613.47;10397406;28;20605;-67
2023/07/03 17:11:39;;;;;;;1.48;1.38;;;23.80;76.00;;;24.67;39.12;97608.28;10395377;28;20236;-68
2023/07/03 17:16:43;;;;;;;1.42;1.33;;;23.70;76.10;;;24.67;39.35;97614.38;10395326;28;20590;-66
2023/07/03 17:21:47;;;;;;;1.30;1.20;;;23.70;76.80;;;24.66;39.19;97620.44;10395761;28;20660;-67
2023/07/03 17:26:50;;;;;;;1.45;1.35;;;23.70;76.90;;;24.64;39.53;97617.00;10391639;28;20223;-67
2023/07/03 17:31:55;;;;;;;2.50;1.48;;;23.70;77.90;;;24.71;39.83;97623.06;10395067;28;20706;-67
2023/07/03 17:36:58;;;;;;;1.85;1.50;;;23.60;78.20;;;24.56;40.68;97621.38;10391958;28;20236;-69
2023/07/03 17:42:01;;;;;;;1.52;1.33;;;23.60;78.30;;;24.41;41.00;97610.88;10386718;28;20230;-69
2023/07/03 17:47:06;;;;;;;1.60;1.42;;;23.40;80.90;;;24.39;41.57;97613.53;10399814;28;20232;-70
2023/07/03 17:52:09;;;;;;;1.48;1.38;;;23.40;80.00;;;24.30;41.87;97613.53;10395456;28;20650;-67
2023/07/03 17:57:12;;;;;;;3.38;1.70;;;23.30;81.30;;;24.13;42.22;97616.16;10388317;28;20240;-70
2023/07/03 18:02:17;;;;;;;2.25;1.40;;;23.10;81.10;;;24.03;42.38;97609.19;10394233;28;20230;-67
2023/07/03 18:07:20;;;;;;;2.10;1.90;;;23.10;81.40;;;24.00;42.34;97602.22;10394061;28;20244;-67
2023/07/03 18:12:25;;;;;;;3.33;1.52;;;22.90;81.70;;;23.72;42.85;97608.31;10393738;28;20236;-67
2023/07/03 18:17:29;;;;;;;3.15;1.90;;;22.70;82.00;;;23.53;43.36;97612.63;10393149;28;20237;-67
2023/07/03 18:22:32;;;;;;;2.08;1.70;;;22.60;82.80;;;23.47;44.37;97612.63;10393459;28;20240;-67
2023/07/03 18:27:36;;;;;;;2.35;1.90;;;22.40;83.90;;;23.30;44.79;97605.63;10384641;28;20226;-66
2023/07/03 18:32:40;;;;;;;2.45;1.80;;;22.30;85.80;;;23.18;45.48;97605.59;10376725;28;20227;-67
2023/07/03 18:37:43;;;;;;;3.47;1.98;;;22.20;86.30;;;23.12;46.14;97610.75;10375910;28;20578;-66
2023/07/03 18:42:46;;;;;;;2.28;2.08;;;22.10;87.90;;;23.05;46.53;97602.06;10366796;28;20234;-67
2023/07/03 18:47:51;;;;;;;1.92;1.80;;;22.10;88.10;;;22.99;46.89;97620.28;10368991;28;20236;-67
2023/07/03 18:52:55;;;;;;;3.08;1.80;;;22.00;89.10;;;22.96;47.08;97622.03;10382107;28;20240;-67
2023/07/03 18:57:59;;;;;;;2.42;1.98;;;22.00;88.90;;;22.88;47.89;97616.75;10369864;28;20241;-67
2023/07/03 19:03:03;;;;;;;2.00;1.88;;;21.90;90.60;;;22.81;48.49;97615.84;10375184;28;20244;-66
2023/07/03 19:08:07;;;;;;;1.95;1.85;;;21.90;91.10;;;22.75;48.92;97626.25;10370351;28;20230;-67
2023/07/03 19:13:10;;;;;;;3.15;2.00;;;21.80;90.90;;;22.66;49.70;97631.38;10385453;28;20999;-67
2023/07/03 19:18:14;;;;;;;3.50;2.67;;;21.70;91.60;;;22.59;50.73;97640.03;10366342;28;20230;-67
2023/07/03 19:23:17;;;;;;;2.55;2.35;;;21.60;92.70;;;22.55;51.08;97643.47;10376716;28;20252;-67
2023/07/03 19:28:21;;;;;;;4.43;2.30;;;21.60;92.90;;;22.59;50.97;97645.25;10388001;28;20788;-67
2023/07/03 19:33:26;;;;;;;4.03;2.50;;;21.50;92.90;;;22.45;51.96;97653.84;10390966;28;20229;-67
2023/07/03 19:38:29;;;;;;;2.40;2.00;;;21.40;93.40;;;22.43;52.43;97649.47;10396552;28;20283;-66
2023/07/03 19:43:32;;;;;;;4.00;2.20;;;21.40;94.00;;;22.34;52.88;97658.09;10392167;28;20226;-67
2023/07/03 19:48:38;;;;;;;2.58;1.77;;;21.30;94.50;;;22.14;53.99;97673.53;10398852;28;20233;-67
2023/07/03 19:53:41;;;;;;;3.28;2.10;;;21.10;95.30;;;22.02;55.38;97679.53;10399076;28;20313;-67
2023/07/03 19:58:45;;;;;;;2.22;2.03;;;21.00;96.30;;;21.99;55.24;97697.72;10401042;28;20226;-67
2023/07/03 20:03:49;;;;;;;2.38;2.13;;;21.00;95.90;;;21.92;54.11;97711.53;10397776;28;21157;-68
2023/07/03 20:08:54;;;;;;;5.35;2.22;;;21.00;95.10;;;21.91;52.66;97701.97;10398610;28;20646;-67
2023/07/03 20:13:57;;;;;;;2.85;2.10;;;21.00;94.00;;;21.85;52.21;97708.84;10400765;28;20228;-67
2023/07/03 20:19:02;;;;;;;2.80;2.40;;;20.90;93.70;;;21.94;52.48;97715.00;10402470;28;20218;-67
2023/07/03 20:24:05;;;;;;;2.47;2.08;;;20.90;94.10;;;21.88;52.99;97720.16;10403432;28;20301;-68
2023/07/03 20:29:08;;;;;;;2.70;2.17;;;20.90;94.60;;;21.82;53.42;97718.38;10395315;28;20222;-67
2023/07/03 20:34:13;;;;;;;3.13;2.53;;;20.90;94.60;;;21.78;53.89;97720.94;10403451;28;20251;-68
2023/07/03 20:39:16;;;;;;;4.72;2.25;;;20.80;94.90;;;21.71;53.98;97729.53;10399605;28;20222;-67
2023/07/03 20:44:19;;;;;;;3.35;2.40;;;20.80;95.40;;;21.68;54.81;97722.56;10398402;28;20669;-68
2023/07/03 20:49:25;;;;;;;2.35;2.15;;;20.70;95.60;;;21.63;55.05;97732.03;10395007;28;20228;-67
2023/07/03 20:54:36;;;;;;;2.40;2.20;;;20.70;96.00;;;21.54;55.71;97727.59;10399904;28;20253;-67